createdAt,value
2022-08-05T00:01:28.014Z,96360.06
2022-08-05T00:03:57.068Z,96352.00
2022-08-05T00:06:32.322Z,96350.47
2022-08-05T00:08:59.410Z,96341.97
2022-08-05T00:11:35.199Z,96352.78
2022-08-05T00:14:16.816Z,96347.28
2022-08-05T00:16:52.699Z,96336.91
2022-08-05T00:19:21.495Z,96336.19
2022-08-05T00:21:48.764Z,96339.63
2022-08-05T00:24:16.246Z,96340.44
2022-08-05T00:26:52.002Z,96335.09
2022-08-05T00:29:19.234Z,96340.50
2022-08-05T00:32:10.495Z,96334.22
2022-08-05T00:34:56.865Z,96343.97
2022-08-05T00:37:22.072Z,96349.59
2022-08-05T00:39:57.858Z,96353.72
2022-08-05T00:42:31.589Z,96349.13
2022-08-05T00:44:58.754Z,96352.59
2022-08-05T00:47:25.821Z,96354.53
2022-08-05T00:49:52.243Z,96350.75
2022-08-05T00:52:18.672Z,96352.59
2022-08-05T00:54:54.866Z,96357.25
2022-08-05T00:57:22.778Z,96354.69
2022-08-05T00:59:51.945Z,96369.25
2022-08-05T01:02:18.359Z,96367.72
2022-08-05T01:04:44.775Z,96379.00
2022-08-05T01:07:17.982Z,96375.06
2022-08-05T01:09:44.540Z,96375.56
2022-08-05T01:12:18.433Z,96366.28
2022-08-05T01:14:45.494Z,96366.28
2022-08-05T01:17:11.899Z,96368.59
2022-08-05T01:20:01.204Z,96363.19
2022-08-05T01:22:27.998Z,96364.34
2022-08-05T01:24:54.698Z,96379.41
2022-08-05T01:27:22.233Z,96367.41
2022-08-05T01:29:48.737Z,96375.84
2022-08-05T01:32:18.611Z,96370.94
2022-08-05T01:34:45.295Z,96371.75
2022-08-05T01:37:24.595Z,96366.66
2022-08-05T01:39:51.780Z,96371.69
2022-08-05T01:42:20.595Z,96371.28
2022-08-05T01:44:54.379Z,96365.13
2022-08-05T01:47:21.470Z,96363.94
2022-08-05T01:50:01.781Z,96366.19
2022-08-05T01:52:29.357Z,96363.94
2022-08-05T01:54:56.773Z,96364.44
2022-08-05T01:58:11.343Z,96362.03
2022-08-05T02:00:12.114Z,96362.41
2022-08-05T02:02:38.733Z,96360.53
2022-08-05T02:05:17.491Z,96362.53
2022-08-05T02:08:00.314Z,96365.22
2022-08-05T02:10:28.720Z,96349.78
2022-08-05T02:12:55.217Z,96345.50
2022-08-05T02:15:21.635Z,96347.03
2022-08-05T02:18:30.966Z,96354.72
2022-08-05T02:20:38.921Z,96357.91
2022-08-05T02:23:05.660Z,96352.56
2022-08-05T02:25:49.784Z,96350.19
2022-08-05T02:28:17.002Z,96352.50
2022-08-05T02:30:56.684Z,96361.06
2022-08-05T02:33:24.498Z,96356.03
2022-08-05T02:36:02.741Z,96360.41
2022-08-05T02:38:34.988Z,96362.94
2022-08-05T02:41:14.787Z,96365.22
2022-08-05T02:44:02.919Z,96372.94
2022-08-05T02:46:30.225Z,96379.81
2022-08-05T02:48:56.833Z,96381.81
2022-08-05T02:51:28.231Z,96379.22
2022-08-05T02:54:09.653Z,96374.03
2022-08-05T02:56:56.056Z,96371.00
2022-08-05T02:59:22.460Z,96371.34
2022-08-05T03:01:54.170Z,96367.91
2022-08-05T03:04:20.621Z,96367.53
2022-08-05T03:06:55.155Z,96372.09
2022-08-05T03:09:27.217Z,96369.47
2022-08-05T03:12:02.995Z,96368.31
2022-08-05T03:14:29.408Z,96372.25
2022-08-05T03:16:57.049Z,96370.31
2022-08-05T03:19:34.122Z,96373.03
2022-08-05T03:22:02.311Z,96367.59
2022-08-05T03:24:31.297Z,96368.31
2022-08-05T03:27:00.140Z,96363.50
2022-08-05T03:29:44.479Z,96363.47
2022-08-05T03:32:14.375Z,96368.47
2022-08-05T03:34:40.991Z,96365.78
2022-08-05T03:37:07.612Z,96361.91
2022-08-05T03:39:38.225Z,96364.69
2022-08-05T03:42:20.419Z,96358.84
2022-08-05T03:44:46.834Z,96359.59
2022-08-05T03:47:14.030Z,96373.13
2022-08-05T03:49:51.848Z,96362.72
2022-08-05T03:52:37.526Z,96369.31
2022-08-05T03:56:04.360Z,96366.22
2022-08-05T03:57:51.708Z,96374.28
2022-08-05T04:00:18.105Z,96366.66
2022-08-05T04:02:51.942Z,96363.56
2022-08-05T04:05:24.619Z,96363.94
2022-08-05T04:07:58.623Z,96359.03
2022-08-05T04:10:25.306Z,96352.41
2022-08-05T04:12:54.418Z,96360.25
2022-08-05T04:15:21.233Z,96358.22
2022-08-05T04:17:56.581Z,96355.16
2022-08-05T04:20:23.841Z,96364.03
2022-08-05T04:22:50.241Z,96363.91
2022-08-05T04:25:17.061Z,96360.44
2022-08-05T04:27:57.318Z,96367.41
2022-08-05T04:30:24.664Z,96370.03
2022-08-05T04:32:53.008Z,96367.50
2022-08-05T04:35:19.774Z,96380.28
2022-08-05T04:38:02.541Z,96386.78
2022-08-05T04:40:32.831Z,96384.84
2022-08-05T04:42:59.324Z,96381.97
2022-08-05T04:45:48.408Z,96372.72
2022-08-05T04:48:16.573Z,96383.09
2022-08-05T04:51:02.603Z,96375.44
2022-08-05T04:53:29.575Z,96380.03
2022-08-05T04:56:33.873Z,96386.22
2022-08-05T04:58:46.514Z,96385.84
2022-08-05T05:01:13.420Z,96396.28
2022-08-05T05:03:42.165Z,96406.28
2022-08-05T05:06:35.808Z,96406.72
2022-08-05T05:08:55.532Z,96404.44
2022-08-05T05:11:21.933Z,96417.91
2022-08-05T05:14:08.654Z,96416.88
2022-08-05T05:16:42.345Z,96424.97
2022-08-05T05:19:19.227Z,96425.72
2022-08-05T05:21:49.774Z,96428.53
2022-08-05T05:24:22.019Z,96425.44
2022-08-05T05:26:48.438Z,96439.69
2022-08-05T05:29:18.418Z,96442.41
2022-08-05T05:31:46.345Z,96441.25
2022-08-05T05:34:13.056Z,96450.13
2022-08-05T05:36:42.054Z,96438.19
2022-08-05T05:39:10.902Z,96435.91
2022-08-05T05:41:39.960Z,96439.78
2022-08-05T05:44:35.570Z,96434.44
2022-08-05T05:46:53.806Z,96439.09
2022-08-05T05:49:23.370Z,96442.53
2022-08-05T05:51:50.806Z,96431.31
2022-08-05T05:54:19.845Z,96427.44
2022-08-05T05:56:46.249Z,96423.59
2022-08-05T05:59:13.823Z,96423.59
2022-08-05T06:01:40.335Z,96440.84
2022-08-05T06:04:06.859Z,96451.34
2022-08-05T06:06:35.000Z,96455.38
2022-08-05T06:09:01.533Z,96453.00
2022-08-05T06:11:30.420Z,96452.50
2022-08-05T06:13:56.834Z,96455.53
2022-08-05T06:16:29.920Z,96469.72
2022-08-05T06:19:00.947Z,96466.19
2022-08-05T06:21:36.540Z,96461.88
2022-08-05T06:24:04.227Z,96460.41
2022-08-05T06:26:31.885Z,96470.09
2022-08-05T06:29:03.525Z,96474.25
2022-08-05T06:31:46.794Z,96463.09
2022-08-05T06:34:13.623Z,96458.41
2022-08-05T06:36:58.169Z,96463.50
2022-08-05T06:39:27.096Z,96461.06
2022-08-05T06:41:54.104Z,96465.63
2022-08-05T06:44:22.076Z,96457.47
2022-08-05T06:46:50.919Z,96461.63
2022-08-05T06:49:17.607Z,96467.03
2022-08-05T06:51:45.452Z,96472.13
2022-08-05T06:54:12.056Z,96462.09
2022-08-05T06:56:55.048Z,96467.81
2022-08-05T06:59:38.771Z,96479.38
2022-08-05T07:02:08.694Z,96474.88
2022-08-05T07:04:35.111Z,96469.66
2022-08-05T07:07:02.864Z,96478.50
2022-08-05T07:09:40.579Z,96474.28
2022-08-05T07:12:09.714Z,96485.84
2022-08-05T07:14:36.830Z,96488.16
2022-08-05T07:17:58.837Z,96478.91
2022-08-05T07:22:36.841Z,96490.41
2022-08-05T07:25:22.394Z,96474.19
2022-08-05T07:27:58.072Z,96479.13
2022-08-05T07:30:32.298Z,96477.97
2022-08-05T07:32:59.450Z,96483.44
2022-08-05T07:36:05.298Z,96486.59
2022-08-05T07:38:26.310Z,96483.47
2022-08-05T07:41:00.362Z,96479.97
2022-08-05T07:43:31.149Z,96481.13
2022-08-05T07:45:58.489Z,96482.59
2022-08-05T07:49:00.503Z,96482.59
2022-08-05T07:51:23.742Z,96490.31
2022-08-05T07:53:58.219Z,96491.22
2022-08-05T07:57:02.784Z,96490.38
2022-08-05T07:59:11.015Z,96491.47
2022-08-05T08:01:41.602Z,96498.03
2022-08-05T08:04:37.285Z,96489.00
2022-08-05T08:07:07.196Z,96486.09
2022-08-05T08:09:33.998Z,96486.44
2022-08-05T08:12:08.329Z,96478.66
2022-08-05T08:14:40.933Z,96489.59
2022-08-05T08:17:07.324Z,96481.06
2022-08-05T08:20:22.899Z,96482.31
2022-08-05T08:22:21.286Z,96481.53
2022-08-05T08:24:53.413Z,96485.41
2022-08-05T08:27:19.833Z,96478.19
2022-08-05T08:30:06.170Z,96476.78
2022-08-05T08:32:32.713Z,96478.63
2022-08-05T08:34:59.111Z,96487.84
2022-08-05T08:37:28.042Z,96482.75
2022-08-05T08:39:54.687Z,96482.75
2022-08-05T08:42:33.899Z,96480.44
2022-08-05T08:45:20.091Z,96476.06
2022-08-05T08:48:07.750Z,96478.69
2022-08-05T08:51:03.284Z,96487.16
2022-08-05T08:53:20.220Z,96477.28
2022-08-05T08:56:03.838Z,96484.97
2022-08-05T08:58:43.252Z,96491.16
2022-08-05T09:01:15.731Z,96493.94
2022-08-05T09:03:45.208Z,96491.69
2022-08-05T09:06:14.691Z,96492.75
2022-08-05T09:08:44.987Z,96491.22
2022-08-05T09:11:13.714Z,96498.25
2022-08-05T09:14:00.691Z,96507.34
2022-08-05T09:16:27.047Z,96503.50
2022-08-05T09:18:53.480Z,96508.44
2022-08-05T09:22:22.396Z,96499.13
2022-08-05T09:24:08.350Z,96508.81
2022-08-05T09:26:36.758Z,96507.91
2022-08-05T09:29:03.206Z,96506.28
2022-08-05T09:32:41.352Z,96500.50
2022-08-05T09:34:16.012Z,96495.53
2022-08-05T09:36:54.115Z,96497.00
2022-08-05T09:39:23.081Z,96491.97
2022-08-05T09:41:53.964Z,96495.44
2022-08-05T09:44:22.829Z,96491.59
2022-08-05T09:46:51.961Z,96486.94
2022-08-05T09:49:20.215Z,96483.84
2022-08-05T09:51:49.557Z,96483.84
2022-08-05T09:54:16.699Z,96479.22
2022-08-05T09:56:55.336Z,96475.38
2022-08-05T09:59:24.139Z,96467.66
2022-08-05T10:01:57.912Z,96471.91
2022-08-05T10:04:28.683Z,96467.72
2022-08-05T10:06:59.435Z,96464.56
2022-08-05T10:09:29.537Z,96466.88
2022-08-05T10:11:56.292Z,96474.16
2022-08-05T10:14:25.049Z,96481.16
2022-08-05T10:16:53.548Z,96473.84
2022-08-05T10:19:23.602Z,96481.56
2022-08-05T10:21:58.416Z,96479.84
2022-08-05T10:24:24.995Z,96474.81
2022-08-05T10:26:53.671Z,96466.41
2022-08-05T10:29:23.953Z,96464.00
2022-08-05T10:32:53.762Z,96473.03
2022-08-05T10:34:52.886Z,96468.25
2022-08-05T10:37:19.304Z,96458.09
2022-08-05T10:40:03.533Z,96457.78
2022-08-05T10:42:33.806Z,96452.72
2022-08-05T10:45:00.982Z,96449.28
2022-08-05T10:47:31.116Z,96447.34
2022-08-05T10:50:32.863Z,96447.16
2022-08-05T10:52:49.627Z,96441.00
2022-08-05T10:55:18.540Z,96439.06
2022-08-05T10:57:45.021Z,96444.06
2022-08-05T11:00:18.579Z,96437.84
2022-08-05T11:02:50.386Z,96430.09
2022-08-05T11:05:18.138Z,96432.38
2022-08-05T11:08:03.162Z,96432.38
2022-08-05T11:10:31.162Z,96428.50
2022-08-05T11:12:57.577Z,96433.16
2022-08-05T11:15:24.176Z,96430.84
2022-08-05T11:18:11.821Z,96422.81
2022-08-05T11:20:39.205Z,96424.28
2022-08-05T11:23:08.974Z,96414.56
2022-08-05T11:26:05.553Z,96423.88
2022-08-05T11:28:23.378Z,96421.38
2022-08-05T11:30:53.284Z,96421.09
2022-08-05T11:33:21.242Z,96412.63
2022-08-05T11:36:08.365Z,96417.28
2022-08-05T11:38:45.232Z,96405.34
2022-08-05T11:41:34.480Z,96408.13
2022-08-05T11:44:04.925Z,96404.97
2022-08-05T11:46:33.523Z,96402.88
2022-08-05T11:49:01.347Z,96398.50
2022-08-05T11:51:44.150Z,96401.19
2022-08-05T11:54:14.403Z,96398.78
2022-08-05T11:56:41.359Z,96391.44
2022-08-05T11:59:13.709Z,96381.44
2022-08-05T12:01:40.413Z,96386.91
2022-08-05T12:04:06.860Z,96387.44
2022-08-05T12:06:33.263Z,96383.63
2022-08-05T12:08:59.674Z,96388.16
2022-08-05T12:11:28.420Z,96377.09
2022-08-05T12:14:06.445Z,96368.78
2022-08-05T12:16:33.532Z,96364.63
2022-08-05T12:19:04.994Z,96373.91
2022-08-05T12:21:39.303Z,96366.94
2022-08-05T12:24:07.028Z,96370.31
2022-08-05T12:26:33.860Z,96373.16
2022-08-05T12:29:01.481Z,96363.69
2022-08-05T12:31:43.480Z,96364.88
2022-08-05T12:34:14.609Z,96364.72
2022-08-05T12:36:47.202Z,96366.84
2022-08-05T12:39:13.658Z,96358.34
2022-08-05T12:41:43.716Z,96352.94
2022-08-05T12:44:11.592Z,96351.00
2022-08-05T12:46:40.997Z,96352.16
2022-08-05T12:49:13.231Z,96344.06
2022-08-05T12:52:12.016Z,96351.34
2022-08-05T12:54:26.838Z,96344.00
2022-08-05T12:56:53.259Z,96348.19
2022-08-05T12:59:20.796Z,96341.66
2022-08-05T13:02:03.461Z,96344.72
2022-08-05T13:04:33.430Z,96336.94
2022-08-05T13:07:10.381Z,96336.94
2022-08-05T13:09:42.265Z,96339.25
2022-08-05T13:12:16.080Z,96330.72
2022-08-05T13:14:42.776Z,96327.63
2022-08-05T13:17:09.205Z,96322.66
2022-08-05T13:19:40.406Z,96311.84
2022-08-05T13:22:28.547Z,96307.75
2022-08-05T13:24:57.890Z,96305.00
2022-08-05T13:27:37.337Z,96310.88
2022-08-05T13:30:35.747Z,96300.69
2022-08-05T13:32:51.630Z,96301.03
2022-08-05T13:35:22.129Z,96306.84
2022-08-05T13:37:55.684Z,96301.09
2022-08-05T13:40:36.932Z,96291.03
2022-08-05T13:43:12.197Z,96287.97
2022-08-05T13:45:43.050Z,96283.69
2022-08-05T13:48:58.907Z,96283.28
2022-08-05T13:50:56.223Z,96285.53
2022-08-05T13:53:23.068Z,96293.59
2022-08-05T13:55:58.766Z,96289.28
2022-08-05T13:58:30.727Z,96285.06
2022-08-05T14:00:57.588Z,96294.69
2022-08-05T14:03:24.195Z,96298.16
2022-08-05T14:06:26.396Z,96295.41
2022-08-05T14:08:37.032Z,96298.88
2022-08-05T14:11:20.157Z,96294.97
2022-08-05T14:13:48.166Z,96293.81
2022-08-05T14:16:16.715Z,96294.16
2022-08-05T14:18:43.636Z,96291.44
2022-08-05T14:22:07.883Z,96300.34
2022-08-05T14:23:56.669Z,96296.78
2022-08-05T14:26:36.207Z,96294.50
2022-08-05T14:29:05.325Z,96302.19
2022-08-05T14:32:03.617Z,96308.56
2022-08-05T14:34:29.160Z,96307.53
2022-08-05T14:37:01.590Z,96309.47
2022-08-05T14:39:28.070Z,96299.56
2022-08-05T14:42:19.564Z,96299.97
2022-08-05T14:44:42.027Z,96298.16
2022-08-05T14:47:08.899Z,96312.88
2022-08-05T14:49:59.450Z,96311.78
2022-08-05T14:52:42.943Z,96304.41
2022-08-05T14:55:08.152Z,96304.78
2022-08-05T14:57:56.219Z,96295.06
2022-08-05T15:00:28.064Z,96287.72
2022-08-05T15:02:55.908Z,96287.72
2022-08-05T15:05:22.539Z,96270.34
2022-08-05T15:08:12.107Z,96271.19
2022-08-05T15:10:43.056Z,96271.09
2022-08-05T15:13:12.536Z,96262.97
2022-08-05T15:15:54.285Z,96261.44
2022-08-05T15:18:22.469Z,96270.63
2022-08-05T15:20:49.516Z,96266.44
2022-08-05T15:23:15.934Z,96265.66
2022-08-05T15:25:53.005Z,96269.91
2022-08-05T15:28:22.227Z,96272.50
2022-08-05T15:30:54.311Z,96273.59
2022-08-05T15:34:04.111Z,96272.41
2022-08-05T15:36:16.917Z,96273.53
2022-08-05T15:38:50.405Z,96275.38
2022-08-05T15:41:55.667Z,96274.63
2022-08-05T15:44:23.154Z,96277.78
2022-08-05T15:46:49.643Z,96278.09
2022-08-05T15:49:27.408Z,96276.25
2022-08-05T15:52:29.609Z,96278.03
2022-08-05T15:54:51.840Z,96277.28
2022-08-05T15:57:18.259Z,96275.31
2022-08-05T15:59:44.783Z,96283.00
2022-08-05T16:02:14.822Z,96287.69
2022-08-05T16:04:51.764Z,96279.88
2022-08-05T16:07:18.174Z,96279.97
2022-08-05T16:09:44.568Z,96285.38
2022-08-05T16:12:11.426Z,96287.88
2022-08-05T16:14:38.519Z,96296.50
2022-08-05T16:17:04.932Z,96305.81
2022-08-05T16:20:03.054Z,96305.81
2022-08-05T16:22:19.064Z,96305.75
2022-08-05T16:24:54.041Z,96311.84
2022-08-05T16:27:32.223Z,96319.19
2022-08-05T16:30:06.935Z,96335.78
2022-08-05T16:32:49.908Z,96336.97
2022-08-05T16:35:16.305Z,96333.97
2022-08-05T16:38:02.533Z,96327.88
2022-08-05T16:40:31.297Z,96334.88
2022-08-05T16:42:59.473Z,96329.56
2022-08-05T16:46:04.343Z,96324.34
2022-08-05T16:48:25.524Z,96334.59
2022-08-05T16:50:52.660Z,96328.09
2022-08-05T16:53:22.902Z,96343.97
2022-08-05T16:55:59.030Z,96341.53
2022-08-05T16:58:25.939Z,96337.19
2022-08-05T17:00:52.778Z,96341.81
2022-08-05T17:03:20.273Z,96356.03
2022-08-05T17:05:51.834Z,96352.91
2022-08-05T17:08:36.001Z,96345.97
2022-08-05T17:11:08.762Z,96362.56
2022-08-05T17:13:37.289Z,96366.81
2022-08-05T17:16:28.053Z,96371.84
2022-08-05T17:18:54.118Z,96380.75
2022-08-05T17:21:20.857Z,96381.41
2022-08-05T17:24:05.904Z,96380.06
2022-08-05T17:26:36.636Z,96386.97
2022-08-05T17:29:09.951Z,96387.69
2022-08-05T17:31:41.460Z,96397.38
2022-08-05T17:34:30.166Z,96413.22
2022-08-05T17:36:58.935Z,96420.47
2022-08-05T17:39:34.449Z,96426.38
2022-08-05T17:42:18.208Z,96430.69
2022-08-05T17:44:50.335Z,96442.69
2022-08-05T17:47:17.723Z,96438.06
2022-08-05T17:49:59.598Z,96439.22
2022-08-05T17:52:29.493Z,96448.16
2022-08-05T17:54:55.903Z,96452.44
2022-08-05T17:57:22.306Z,96464.78
2022-08-05T17:59:59.796Z,96466.66
2022-08-05T18:02:32.139Z,96477.19
2022-08-05T18:04:58.626Z,96486.03
2022-08-05T18:07:25.305Z,96489.88
2022-08-05T18:10:08.945Z,96493.78
2022-08-05T18:12:36.968Z,96508.97
2022-08-05T18:15:03.838Z,96519.78
2022-08-05T18:18:00.441Z,96541.44
2022-08-05T18:20:17.636Z,96541.91
2022-08-05T18:22:53.775Z,96534.88
2022-08-05T18:25:25.137Z,96531.09
2022-08-05T18:27:56.058Z,96526.44
2022-08-05T18:30:23.415Z,96535.78
2022-08-05T18:32:53.459Z,96544.63
2022-08-05T18:35:20.252Z,96551.25
2022-08-05T18:38:06.657Z,96572.84
2022-08-05T18:41:53.994Z,96572.13
2022-08-05T18:43:20.786Z,96587.13
2022-08-05T18:45:49.557Z,96595.41
2022-08-05T18:48:30.250Z,96601.59
2022-08-05T18:51:01.792Z,96613.19
2022-08-05T18:53:50.265Z,96616.91
2022-08-05T18:56:16.983Z,96622.00
2022-08-05T18:58:48.236Z,96619.69
2022-08-05T19:01:18.181Z,96628.50
2022-08-05T19:03:55.496Z,96625.56
2022-08-05T19:06:34.058Z,96636.75
2022-08-05T19:09:04.045Z,96648.72
2022-08-05T19:11:59.419Z,96646.03
2022-08-05T19:14:38.079Z,96645.66
2022-08-05T19:17:03.316Z,96663.78
2022-08-05T19:19:32.916Z,96675.00
2022-08-05T19:22:00.506Z,96692.47
2022-08-05T19:24:34.756Z,96684.34
2022-08-05T19:27:04.020Z,96700.59
2022-08-05T19:29:35.869Z,96717.16
2022-08-05T19:32:02.654Z,96731.09
2022-08-05T19:34:30.868Z,96738.47
2022-08-05T19:36:57.286Z,96741.50
2022-08-05T19:39:23.731Z,96739.59
2022-08-05T19:42:06.295Z,96739.25
2022-08-05T19:44:37.444Z,96751.22
2022-08-05T19:47:11.763Z,96756.63
2022-08-05T19:49:41.784Z,96765.50
2022-08-05T19:52:30.791Z,96767.06
2022-08-05T19:54:54.953Z,96765.66
2022-08-05T19:57:49.145Z,96779.88
2022-08-05T20:00:07.749Z,96781.09
2022-08-05T20:02:35.907Z,96779.53
2022-08-05T20:05:04.713Z,96786.06
2022-08-05T20:07:46.931Z,96799.25
2022-08-05T20:10:14.853Z,96804.66
2022-08-05T20:12:47.833Z,96796.97
2022-08-05T20:15:15.081Z,96795.84
2022-08-05T20:17:49.877Z,96789.19
2022-08-05T20:20:16.958Z,96792.00
2022-08-05T20:22:46.743Z,96791.59
2022-08-05T20:25:13.331Z,96797.03
2022-08-05T20:27:41.814Z,96798.94
2022-08-05T20:30:08.621Z,96805.50
2022-08-05T20:32:35.030Z,96796.97
2022-08-05T20:35:02.598Z,96792.75
2022-08-05T20:38:06.016Z,96798.94
2022-08-05T20:40:15.386Z,96808.13
2022-08-05T20:42:44.431Z,96808.59
2022-08-05T20:45:10.853Z,96801.19
2022-08-05T20:47:40.263Z,96810.50
2022-08-05T20:50:07.544Z,96823.66
2022-08-05T20:52:34.061Z,96829.78
2022-08-05T20:55:55.595Z,96825.19
2022-08-05T20:57:47.004Z,96825.94
2022-08-05T21:00:41.452Z,96830.94
2022-08-05T21:03:01.794Z,96829.44
2022-08-05T21:05:38.068Z,96840.66
2022-08-05T21:08:14.589Z,96861.88
2022-08-05T21:10:40.984Z,96861.88
2022-08-05T21:13:20.271Z,96862.63
2022-08-05T21:15:53.070Z,96861.91
2022-08-05T21:18:19.473Z,96868.47
2022-08-05T21:20:49.734Z,96883.91
2022-08-05T21:23:16.165Z,96879.28
2022-08-05T21:25:42.588Z,96887.38
2022-08-05T21:28:09.002Z,96876.94
2022-08-05T21:30:36.312Z,96871.59
2022-08-05T21:33:02.709Z,96869.59
2022-08-05T21:35:43.651Z,96874.63
2022-08-05T21:38:21.131Z,96873.09
2022-08-05T21:40:47.553Z,96863.03
2022-08-05T21:43:24.254Z,96864.25
2022-08-05T21:45:51.838Z,96863.81
2022-08-05T21:48:23.551Z,96866.91
2022-08-05T21:50:54.114Z,96868.44
2022-08-05T21:53:20.837Z,96883.91
2022-08-05T21:56:05.780Z,96889.72
2022-08-05T21:58:33.621Z,96891.66
2022-08-05T22:01:00.384Z,96906.31
2022-08-05T22:03:52.601Z,96899.00
2022-08-05T22:06:13.620Z,96897.88
2022-08-05T22:08:42.468Z,96895.50
2022-08-05T22:11:09.311Z,96886.63
2022-08-05T22:14:32.368Z,96888.94
2022-08-05T22:16:41.364Z,96891.28
2022-08-05T22:19:15.245Z,96892.03
2022-08-05T22:21:56.113Z,96899.81
2022-08-05T22:24:39.628Z,96896.38
2022-08-05T22:27:11.073Z,96891.34
2022-08-05T22:29:43.735Z,96896.34
2022-08-05T22:32:12.398Z,96890.97
2022-08-05T22:34:44.010Z,96892.88
2022-08-05T22:37:12.143Z,96893.25
2022-08-05T22:39:38.620Z,96887.50
2022-08-05T22:42:10.152Z,96891.00
2022-08-05T22:44:38.452Z,96888.34
2022-08-05T22:47:05.671Z,96892.94
2022-08-05T22:50:18.526Z,96888.72
2022-08-05T22:52:30.707Z,96889.06
2022-08-05T22:55:00.832Z,96882.94
2022-08-05T22:57:27.244Z,96881.38
2022-08-05T23:00:02.886Z,96868.25
2022-08-05T23:02:30.252Z,96870.59
2022-08-05T23:04:56.852Z,96873.66
2022-08-05T23:07:23.256Z,96868.31
2022-08-05T23:09:57.068Z,96867.16
2022-08-05T23:12:28.849Z,96855.63
2022-08-05T23:14:55.495Z,96850.56
2022-08-05T23:17:24.530Z,96849.84
2022-08-05T23:19:59.416Z,96850.22
2022-08-05T23:22:27.126Z,96841.66
2022-08-05T23:24:54.188Z,96839.75
2022-08-05T23:27:20.605Z,96841.25
2022-08-05T23:29:49.168Z,96850.16
2022-08-05T23:32:17.136Z,96848.63
2022-08-05T23:34:49.412Z,96845.22
2022-08-05T23:37:17.205Z,96847.91
2022-08-05T23:39:53.791Z,96853.31
2022-08-05T23:42:23.579Z,96844.00
2022-08-05T23:44:55.863Z,96846.69
2022-08-05T23:47:22.259Z,96842.47
2022-08-05T23:49:52.020Z,96836.25
2022-08-05T23:52:21.878Z,96821.59
2022-08-05T23:54:51.772Z,96818.13
2022-08-05T23:57:18.730Z,96830.09
